createdAt,value
2017-08-26T00:02:33.608Z,82.80
2017-08-26T00:05:01.088Z,82.80
2017-08-26T00:07:29.061Z,82.80
2017-08-26T00:09:56.675Z,82.90
2017-08-26T00:12:24.153Z,82.90
2017-08-26T00:14:51.678Z,82.90
2017-08-26T00:17:19.351Z,82.80
2017-08-26T00:19:46.826Z,82.90
2017-08-26T00:22:14.422Z,82.80
2017-08-26T00:24:41.972Z,82.80
2017-08-26T00:27:10.379Z,83.00
2017-08-26T00:29:37.828Z,82.90
2017-08-26T00:32:05.276Z,82.70
2017-08-26T00:34:32.756Z,82.50
2017-08-26T00:37:00.245Z,82.50
2017-08-26T00:39:27.866Z,82.60
2017-08-26T00:41:55.329Z,82.60
2017-08-26T00:44:22.790Z,82.60
2017-08-26T00:46:50.333Z,82.60
2017-08-26T00:49:18.036Z,82.60
2017-08-26T00:51:45.537Z,82.60
2017-08-26T00:54:13.029Z,82.70
2017-08-26T00:56:40.533Z,82.70
2017-08-26T00:59:08.043Z,82.80
2017-08-26T01:01:35.566Z,82.90
2017-08-26T01:04:03.031Z,82.90
2017-08-26T01:06:30.485Z,82.80
2017-08-26T01:08:58.126Z,82.80
2017-08-26T01:11:25.622Z,82.90
2017-08-26T01:13:53.153Z,82.80
2017-08-26T01:16:20.650Z,82.80
2017-08-26T01:18:48.151Z,82.80
2017-08-26T01:21:15.618Z,82.60
2017-08-26T01:23:43.292Z,82.50
2017-08-26T01:26:10.784Z,82.40
2017-08-26T01:28:38.269Z,82.40
2017-08-26T01:31:05.845Z,82.40
2017-08-26T01:33:33.365Z,82.50
2017-08-26T01:36:00.842Z,82.60
2017-08-26T01:38:28.358Z,82.60
2017-08-26T01:40:55.817Z,82.70
2017-08-26T01:43:23.317Z,82.90
2017-08-26T01:45:50.844Z,83.10
2017-08-26T01:48:18.308Z,83.10
2017-08-26T01:50:45.763Z,83.00
2017-08-26T01:53:14.591Z,82.90
2017-08-26T01:55:42.085Z,82.80
2017-08-26T01:58:09.652Z,82.80
2017-08-26T02:00:37.896Z,82.80
2017-08-26T02:03:05.376Z,82.80
2017-08-26T02:05:32.914Z,82.70
2017-08-26T02:08:00.609Z,82.80
2017-08-26T02:10:28.109Z,82.90
2017-08-26T02:12:55.590Z,83.00
2017-08-26T02:15:23.151Z,83.20
2017-08-26T02:17:50.617Z,83.20
2017-08-26T02:20:18.611Z,83.20
2017-08-26T02:22:49.952Z,83.20
2017-08-26T02:25:17.747Z,83.30
2017-08-26T02:27:45.217Z,83.20
2017-08-26T02:30:12.778Z,83.20
2017-08-26T02:32:40.274Z,83.20
2017-08-26T02:35:07.745Z,83.30
2017-08-26T02:37:35.237Z,83.30
2017-08-26T02:40:02.724Z,83.20
2017-08-26T02:42:30.242Z,83.30
2017-08-26T02:44:57.758Z,83.50
2017-08-26T02:47:25.205Z,83.50
2017-08-26T02:49:52.780Z,83.60
2017-08-26T02:52:20.265Z,83.50
2017-08-26T02:54:48.366Z,83.50
2017-08-26T02:57:15.989Z,83.50
2017-08-26T02:59:44.322Z,83.40
2017-08-26T03:02:11.805Z,83.40
2017-08-26T03:04:39.256Z,83.40
2017-08-26T03:07:07.883Z,83.50
2017-08-26T03:09:35.387Z,83.40
2017-08-26T03:12:02.884Z,83.40
2017-08-26T03:14:30.585Z,83.40
2017-08-26T03:16:58.115Z,83.40
2017-08-26T03:19:25.607Z,83.40
2017-08-26T03:21:53.167Z,83.40
2017-08-26T03:24:20.653Z,83.40
2017-08-26T03:26:48.123Z,83.50
2017-08-26T03:29:15.743Z,83.60
2017-08-26T03:31:43.226Z,83.80
2017-08-26T03:34:10.709Z,83.90
2017-08-26T03:36:38.170Z,83.90
2017-08-26T03:39:05.662Z,83.80
2017-08-26T03:41:33.109Z,83.70
2017-08-26T03:44:00.709Z,83.80
2017-08-26T03:46:28.216Z,83.60
2017-08-26T03:48:55.707Z,83.60
2017-08-26T03:51:23.220Z,83.50
2017-08-26T03:53:50.699Z,83.40
2017-08-26T03:56:18.178Z,83.20
2017-08-26T03:58:45.658Z,83.10
2017-08-26T04:01:13.176Z,83.00
2017-08-26T04:03:40.671Z,83.00
2017-08-26T04:06:08.173Z,83.10
2017-08-26T04:08:35.637Z,83.10
2017-08-26T04:11:03.133Z,83.10
2017-08-26T04:13:30.665Z,83.10
2017-08-26T04:15:58.131Z,82.90
2017-08-26T04:18:25.607Z,82.90
2017-08-26T04:20:53.115Z,83.10
2017-08-26T04:23:20.554Z,83.00
2017-08-26T04:25:48.560Z,82.90
2017-08-26T04:28:16.990Z,82.90
2017-08-26T04:30:44.461Z,82.90
2017-08-26T04:33:11.958Z,82.90
2017-08-26T04:35:39.597Z,82.80
2017-08-26T04:38:07.080Z,82.60
2017-08-26T04:40:34.553Z,82.50
2017-08-26T04:43:02.048Z,82.40
2017-08-26T04:45:29.612Z,82.50
2017-08-26T04:47:57.113Z,82.40
2017-08-26T04:50:24.647Z,82.40
2017-08-26T04:52:52.198Z,82.30
2017-08-26T04:55:19.653Z,82.20
2017-08-26T04:57:47.372Z,82.20
2017-08-26T05:00:15.931Z,82.40
2017-08-26T05:02:43.436Z,82.60
2017-08-26T05:05:10.937Z,82.80
2017-08-26T05:07:38.410Z,82.80
2017-08-26T05:12:40.208Z,82.40
2017-08-26T05:15:07.631Z,82.40
2017-08-26T05:17:35.127Z,82.60
2017-08-26T05:20:02.593Z,82.60
2017-08-26T05:22:30.046Z,82.60
2017-08-26T05:24:57.536Z,82.60
2017-08-26T05:27:25.691Z,82.80
2017-08-26T05:29:53.143Z,82.80
2017-08-26T05:32:20.628Z,83.00
2017-08-26T05:34:48.144Z,82.80
2017-08-26T05:37:15.648Z,82.80
2017-08-26T05:39:43.145Z,83.00
2017-08-26T05:42:10.935Z,82.80
2017-08-26T05:44:38.390Z,82.80
2017-08-26T05:47:05.842Z,83.00
2017-08-26T05:49:33.342Z,83.00
2017-08-26T05:52:00.844Z,83.00
2017-08-26T05:54:28.288Z,82.80
2017-08-26T05:56:55.805Z,82.80
2017-08-26T05:59:23.266Z,83.00
2017-08-26T06:01:50.751Z,83.00
2017-08-26T06:04:18.265Z,83.10
2017-08-26T06:06:45.747Z,83.20
2017-08-26T06:09:13.214Z,83.20
2017-08-26T06:11:40.709Z,83.30
2017-08-26T06:16:42.214Z,82.90
2017-08-26T06:19:09.700Z,82.60
2017-08-26T06:21:37.599Z,82.70
2017-08-26T06:24:05.105Z,82.70
2017-08-26T06:26:32.633Z,82.10
2017-08-26T06:29:00.156Z,81.70
2017-08-26T06:31:27.671Z,81.20
2017-08-26T06:33:55.145Z,81.10
2017-08-26T06:36:23.558Z,80.90
2017-08-26T06:38:51.283Z,80.60
2017-08-26T06:41:18.741Z,80.40
2017-08-26T06:43:46.211Z,80.60
2017-08-26T06:46:13.698Z,80.60
2017-08-26T06:48:41.204Z,80.50
2017-08-26T06:51:08.645Z,80.40
2017-08-26T06:53:36.338Z,80.50
2017-08-26T06:56:03.764Z,80.60
2017-08-26T06:58:31.216Z,80.60
2017-08-26T07:00:58.980Z,80.50
2017-08-26T07:03:26.487Z,80.10
2017-08-26T07:05:53.961Z,80.20
2017-08-26T07:08:21.496Z,80.10
2017-08-26T07:10:48.950Z,80.00
2017-08-26T07:13:16.416Z,80.20
2017-08-26T07:15:45.351Z,79.90
2017-08-26T07:18:12.870Z,80.00
2017-08-26T07:20:40.371Z,79.90
2017-08-26T07:23:08.469Z,79.90
2017-08-26T07:25:35.920Z,79.50
2017-08-26T07:28:04.419Z,79.60
2017-08-26T07:30:31.887Z,79.40
2017-08-26T07:32:59.384Z,79.60
2017-08-26T07:35:26.910Z,78.90
2017-08-26T07:37:55.160Z,78.90
2017-08-26T07:40:22.601Z,78.70
2017-08-26T07:42:50.045Z,78.60
2017-08-26T07:45:17.591Z,78.40
2017-08-26T07:47:45.838Z,78.40
2017-08-26T07:50:13.341Z,78.00
2017-08-26T07:52:40.872Z,78.30
2017-08-26T07:55:08.345Z,78.70
2017-08-26T07:57:35.923Z,78.30
2017-08-26T08:00:05.048Z,77.90
2017-08-26T08:02:32.799Z,77.50
2017-08-26T08:05:00.376Z,77.50
2017-08-26T08:07:27.849Z,77.40
2017-08-26T08:09:55.344Z,77.80
2017-08-26T08:12:22.814Z,77.80
2017-08-26T08:14:50.323Z,78.10
2017-08-26T08:17:18.031Z,78.30
2017-08-26T08:19:45.552Z,78.10
2017-08-26T08:22:13.028Z,77.80
2017-08-26T08:24:40.577Z,78.00
2017-08-26T08:27:10.005Z,77.90
2017-08-26T08:29:37.507Z,78.10
2017-08-26T08:32:05.252Z,78.30
2017-08-26T08:34:32.784Z,78.10
2017-08-26T08:37:00.306Z,77.50
2017-08-26T08:39:27.785Z,78.10
2017-08-26T08:41:55.318Z,77.80
2017-08-26T08:44:22.788Z,77.90
2017-08-26T08:46:50.356Z,77.30
2017-08-26T08:49:17.877Z,77.40
2017-08-26T08:51:45.327Z,77.60
2017-08-26T08:54:13.562Z,77.50
2017-08-26T08:56:41.226Z,77.50
2017-08-26T08:59:09.003Z,77.60
2017-08-26T09:01:36.529Z,77.80
2017-08-26T09:04:04.373Z,77.30
2017-08-26T09:06:31.817Z,77.00
2017-08-26T09:08:59.294Z,77.20
2017-08-26T09:11:27.717Z,76.70
2017-08-26T09:13:55.666Z,76.70
2017-08-26T09:16:23.136Z,76.60
2017-08-26T09:18:50.675Z,77.10
2017-08-26T09:21:18.331Z,77.20
2017-08-26T09:23:45.841Z,77.20
2017-08-26T09:26:13.514Z,76.60
2017-08-26T09:28:40.975Z,75.50
2017-08-26T09:31:08.453Z,75.50
2017-08-26T09:33:37.537Z,75.80
2017-08-26T09:36:05.067Z,75.60
2017-08-26T09:38:32.614Z,75.20
2017-08-26T09:41:00.175Z,74.70
2017-08-26T09:43:27.873Z,74.00
2017-08-26T09:45:55.383Z,73.40
2017-08-26T09:48:22.905Z,73.20
2017-08-26T09:50:50.751Z,72.60
2017-08-26T09:53:18.362Z,72.40
2017-08-26T09:55:45.858Z,71.20
2017-08-26T09:58:13.586Z,71.00
2017-08-26T10:00:41.051Z,70.90
2017-08-26T10:03:08.525Z,71.00
2017-08-26T10:05:36.088Z,70.40
2017-08-26T10:08:03.571Z,70.70
2017-08-26T10:10:31.129Z,70.70
2017-08-26T10:12:58.572Z,70.40
2017-08-26T10:15:26.100Z,70.20
2017-08-26T10:17:53.643Z,70.90
2017-08-26T10:20:21.180Z,70.20
2017-08-26T10:22:51.946Z,70.10
2017-08-26T10:25:19.573Z,70.20
2017-08-26T10:27:47.100Z,70.60
2017-08-26T10:30:14.621Z,71.10
2017-08-26T10:32:42.948Z,71.40
2017-08-26T10:35:10.531Z,71.70
2017-08-26T10:37:37.940Z,71.60
2017-08-26T10:40:05.560Z,70.40
2017-08-26T10:42:33.232Z,71.10
2017-08-26T10:45:01.044Z,71.40
2017-08-26T10:47:28.675Z,71.40
2017-08-26T10:49:56.222Z,70.30
2017-08-26T10:52:23.719Z,70.70
2017-08-26T10:54:51.404Z,70.90
2017-08-26T10:57:19.083Z,71.00
2017-08-26T10:59:46.999Z,71.50
2017-08-26T11:02:14.877Z,71.30
2017-08-26T11:04:42.342Z,71.50
2017-08-26T11:07:09.906Z,71.30
2017-08-26T11:09:37.944Z,70.90
2017-08-26T11:12:05.467Z,70.40
2017-08-26T11:14:35.122Z,70.40
2017-08-26T11:17:03.929Z,70.70
2017-08-26T11:19:31.488Z,70.80
2017-08-26T11:21:59.052Z,70.80
2017-08-26T11:24:26.719Z,70.20
2017-08-26T11:26:54.185Z,70.40
2017-08-26T11:29:21.829Z,70.80
2017-08-26T11:31:49.618Z,70.40
2017-08-26T11:34:17.263Z,70.20
2017-08-26T11:36:44.786Z,70.70
2017-08-26T11:39:14.303Z,70.80
2017-08-26T11:41:41.883Z,70.60
2017-08-26T11:44:09.452Z,70.50
2017-08-26T11:46:37.242Z,71.10
2017-08-26T11:49:04.792Z,71.10
2017-08-26T11:51:32.320Z,70.90
2017-08-26T11:54:00.104Z,70.80
2017-08-26T11:56:27.670Z,70.30
2017-08-26T11:58:55.318Z,70.40
2017-08-26T12:01:23.163Z,70.10
2017-08-26T12:03:50.791Z,70.20
2017-08-26T12:06:18.367Z,70.60
2017-08-26T12:08:45.934Z,69.20
2017-08-26T12:11:13.491Z,69.50
2017-08-26T12:13:41.120Z,70.00
2017-08-26T12:16:08.635Z,69.10
2017-08-26T12:18:36.184Z,69.20
2017-08-26T12:21:03.686Z,68.40
2017-08-26T12:23:31.226Z,68.40
2017-08-26T12:25:58.806Z,67.80
2017-08-26T12:28:26.304Z,68.20
2017-08-26T12:30:53.931Z,68.40
2017-08-26T12:33:21.418Z,67.90
2017-08-26T12:35:49.031Z,67.90
2017-08-26T12:38:16.605Z,67.90
2017-08-26T12:40:44.156Z,67.70
2017-08-26T12:43:11.724Z,68.50
2017-08-26T12:45:39.271Z,68.40
2017-08-26T12:48:06.789Z,68.50
2017-08-26T12:50:34.304Z,68.30
2017-08-26T12:53:02.221Z,68.30
2017-08-26T12:55:30.053Z,68.20
2017-08-26T12:57:57.661Z,67.90
2017-08-26T13:00:25.855Z,68.30
2017-08-26T13:02:53.347Z,68.50
2017-08-26T13:05:20.914Z,68.60
2017-08-26T13:07:48.604Z,68.20
2017-08-26T13:10:16.122Z,67.90
2017-08-26T13:12:43.738Z,68.00
2017-08-26T13:15:11.511Z,68.20
2017-08-26T13:17:39.071Z,68.20
2017-08-26T13:20:06.568Z,67.40
2017-08-26T13:22:34.123Z,67.60
2017-08-26T13:25:01.739Z,67.10
2017-08-26T13:27:29.264Z,66.80
2017-08-26T13:29:57.386Z,67.00
2017-08-26T13:32:24.952Z,66.70
2017-08-26T13:34:53.420Z,67.00
2017-08-26T13:37:20.933Z,66.60
2017-08-26T13:39:48.431Z,66.90
2017-08-26T13:42:15.936Z,66.00
2017-08-26T13:44:43.850Z,66.00
2017-08-26T13:47:11.523Z,65.80
2017-08-26T13:49:39.335Z,66.10
2017-08-26T13:52:06.915Z,66.00
2017-08-26T13:54:34.439Z,65.60
2017-08-26T13:57:02.973Z,65.50
2017-08-26T13:59:30.556Z,65.60
2017-08-26T14:01:58.092Z,65.80
2017-08-26T14:04:25.680Z,65.00
2017-08-26T14:06:54.000Z,65.20
2017-08-26T14:09:21.547Z,65.80
2017-08-26T14:11:49.377Z,66.40
2017-08-26T14:14:17.416Z,67.10
2017-08-26T14:16:45.013Z,67.10
2017-08-26T14:19:12.846Z,67.60
2017-08-26T14:21:40.587Z,68.00
2017-08-26T14:24:08.265Z,67.90
2017-08-26T14:26:35.839Z,67.70
2017-08-26T14:29:04.223Z,66.90
2017-08-26T14:31:31.822Z,65.60
2017-08-26T14:34:00.161Z,65.00
2017-08-26T14:36:27.902Z,64.10
2017-08-26T14:38:55.489Z,64.90
2017-08-26T14:41:23.826Z,65.20
2017-08-26T14:43:51.791Z,64.90
2017-08-26T14:46:19.326Z,63.60
2017-08-26T14:48:46.942Z,62.80
2017-08-26T14:51:14.588Z,62.80
2017-08-26T14:53:42.066Z,63.50
2017-08-26T14:56:09.736Z,62.60
2017-08-26T14:58:37.393Z,62.30
2017-08-26T15:01:04.910Z,61.80
2017-08-26T15:03:32.544Z,60.50
2017-08-26T15:06:00.418Z,61.00
2017-08-26T15:08:28.000Z,60.60
2017-08-26T15:10:55.610Z,60.30
2017-08-26T15:13:23.220Z,61.10
2017-08-26T15:15:50.716Z,61.20
2017-08-26T15:18:18.304Z,60.90
2017-08-26T15:20:45.911Z,61.30
2017-08-26T15:23:13.446Z,60.30
2017-08-26T15:25:40.982Z,59.80
2017-08-26T15:28:08.557Z,60.50
2017-08-26T15:30:36.207Z,60.30
2017-08-26T15:33:03.757Z,60.30
2017-08-26T15:35:31.248Z,60.30
2017-08-26T15:37:58.808Z,61.00
2017-08-26T15:40:26.420Z,60.60
2017-08-26T15:42:54.142Z,60.50
2017-08-26T15:45:21.692Z,60.00
2017-08-26T15:47:49.402Z,60.70
2017-08-26T15:50:16.928Z,60.40
2017-08-26T15:52:44.451Z,60.90
2017-08-26T15:55:12.092Z,60.30
2017-08-26T15:57:39.603Z,60.40
2017-08-26T16:00:08.876Z,60.40
2017-08-26T16:02:36.835Z,60.70
2017-08-26T16:05:04.425Z,60.30
2017-08-26T16:07:31.966Z,60.80
2017-08-26T16:09:59.509Z,60.90
2017-08-26T16:12:27.361Z,60.80
2017-08-26T16:14:55.240Z,60.80
2017-08-26T16:17:22.930Z,60.80
2017-08-26T16:19:50.531Z,60.80
2017-08-26T16:22:18.216Z,60.80
2017-08-26T16:24:45.739Z,60.50
2017-08-26T16:27:13.324Z,60.80
2017-08-26T16:29:40.848Z,60.90
2017-08-26T16:32:08.271Z,61.30
2017-08-26T16:34:35.846Z,61.50
2017-08-26T16:37:03.487Z,61.50
2017-08-26T16:39:31.150Z,61.50
2017-08-26T16:41:59.446Z,61.80
2017-08-26T16:44:28.199Z,61.90
2017-08-26T16:46:55.865Z,62.00
2017-08-26T16:49:24.250Z,61.80
2017-08-26T16:51:51.940Z,62.00
2017-08-26T16:54:19.511Z,62.30
2017-08-26T16:56:47.105Z,62.60
2017-08-26T16:59:14.595Z,62.60
2017-08-26T17:01:42.129Z,62.70
2017-08-26T17:04:09.638Z,62.90
2017-08-26T17:06:37.429Z,63.00
2017-08-26T17:09:04.944Z,62.90
2017-08-26T17:11:32.948Z,63.10
2017-08-26T17:14:00.474Z,63.50
2017-08-26T17:16:28.190Z,63.50
2017-08-26T17:18:55.796Z,63.70
2017-08-26T17:21:23.373Z,62.80
2017-08-26T17:23:50.932Z,63.00
2017-08-26T17:26:18.528Z,62.80
2017-08-26T17:28:46.087Z,62.70
2017-08-26T17:31:13.752Z,62.70
2017-08-26T17:33:41.302Z,63.00
2017-08-26T17:36:09.298Z,63.00
2017-08-26T17:38:36.862Z,63.00
2017-08-26T17:41:04.675Z,63.20
2017-08-26T17:43:32.250Z,63.30
2017-08-26T17:45:59.851Z,63.30
2017-08-26T17:48:27.413Z,63.30
2017-08-26T17:50:55.311Z,63.30
2017-08-26T17:53:22.941Z,63.40
2017-08-26T17:55:50.716Z,63.80
2017-08-26T17:58:18.335Z,64.10
2017-08-26T18:00:45.835Z,64.30
2017-08-26T18:03:15.277Z,64.10
2017-08-26T18:05:43.158Z,64.30
2017-08-26T18:08:10.663Z,64.50
2017-08-26T18:10:38.278Z,64.60
2017-08-26T18:13:05.851Z,64.70
2017-08-26T18:15:34.170Z,64.90
2017-08-26T18:18:01.756Z,65.10
2017-08-26T18:20:29.614Z,65.40
2017-08-26T18:22:57.446Z,65.40
2017-08-26T18:25:24.938Z,65.50
2017-08-26T18:27:52.488Z,65.60
2017-08-26T18:30:20.030Z,65.80
2017-08-26T18:32:47.532Z,66.00
2017-08-26T18:35:15.087Z,66.10
2017-08-26T18:37:42.923Z,66.30
2017-08-26T18:40:10.399Z,66.70
2017-08-26T18:42:38.588Z,67.10
2017-08-26T18:45:06.206Z,67.20
2017-08-26T18:47:33.761Z,67.90
2017-08-26T21:03:04.819Z,72.90
2017-08-26T21:05:32.252Z,72.90
2017-08-26T21:07:59.687Z,72.80
2017-08-26T21:10:27.135Z,72.70
2017-08-26T21:12:54.573Z,72.70
2017-08-26T21:15:22.007Z,72.80
2017-08-26T21:17:49.664Z,72.70
2017-08-26T21:20:17.092Z,73.00
2017-08-26T21:22:44.520Z,72.80
2017-08-26T21:25:11.957Z,73.10
2017-08-26T21:27:39.399Z,73.10
2017-08-26T21:30:06.834Z,73.10
2017-08-26T21:32:35.392Z,73.00
2017-08-26T21:35:02.828Z,73.30
2017-08-26T21:37:30.314Z,73.60
2017-08-26T21:39:57.758Z,73.80
2017-08-26T21:42:25.193Z,73.70
2017-08-26T21:44:52.824Z,73.90
2017-08-26T21:47:20.300Z,73.90
2017-08-26T21:49:47.724Z,74.00
2017-08-26T21:52:15.200Z,74.00
2017-08-26T21:54:42.631Z,74.00
2017-08-26T21:57:10.051Z,73.90
2017-08-26T21:59:37.521Z,73.70
2017-08-26T22:02:05.191Z,73.90
2017-08-26T22:04:32.640Z,74.10
2017-08-26T22:07:00.131Z,74.20
2017-08-26T22:09:27.588Z,74.30
2017-08-26T22:11:55.010Z,74.40
2017-08-26T22:14:22.499Z,74.40
2017-08-26T22:16:49.933Z,74.50
2017-08-26T22:19:17.367Z,74.50
2017-08-26T22:21:44.998Z,74.60
2017-08-26T22:24:12.428Z,74.70
2017-08-26T22:26:39.876Z,74.70
2017-08-26T22:29:07.801Z,74.80
2017-08-26T22:31:35.260Z,74.80
2017-08-26T22:34:02.675Z,74.90
2017-08-26T22:36:30.130Z,75.00
2017-08-26T22:38:57.860Z,75.00
2017-08-26T22:41:25.292Z,74.80
2017-08-26T22:43:52.717Z,74.70
2017-08-26T22:46:20.347Z,74.80
2017-08-26T22:48:47.786Z,74.80
2017-08-26T22:51:15.218Z,75.10
2017-08-26T22:53:42.671Z,75.00
2017-08-26T22:56:10.107Z,75.00
2017-08-26T22:58:37.747Z,75.00
2017-08-26T23:01:05.431Z,75.00
2017-08-26T23:03:32.913Z,75.20
2017-08-26T23:06:00.383Z,75.30
2017-08-26T23:08:27.825Z,75.30
2017-08-26T23:10:55.250Z,75.50
2017-08-26T23:13:22.805Z,75.60
2017-08-26T23:15:50.243Z,75.60
2017-08-26T23:18:17.664Z,75.60
2017-08-26T23:20:45.297Z,75.70
2017-08-26T23:23:12.728Z,75.90
2017-08-26T23:25:40.180Z,76.00
2017-08-26T23:28:07.627Z,75.80
2017-08-26T23:30:35.069Z,76.00
2017-08-26T23:33:02.761Z,76.00
2017-08-26T23:35:30.239Z,76.00
2017-08-26T23:37:58.182Z,75.90
2017-08-26T23:40:25.662Z,75.90
2017-08-26T23:42:53.084Z,75.90
2017-08-26T23:45:20.523Z,75.90
2017-08-26T23:47:48.075Z,76.00
2017-08-26T23:50:15.985Z,76.10
2017-08-26T23:52:43.397Z,76.30
2017-08-26T23:55:11.135Z,76.30
2017-08-26T23:57:38.600Z,76.30
